Pagrindinis puslapis
METAR-TAF:

METAR-TAF

Oro uostai :

Damamas, Saudo Arabija

platuma: 26-28N, ilguma: 049-47E, Aukštis: 22 m

Dabartinis oras

Ataskaita buvo paskelbta 54 minutes, ne 23:00 UTC
Vėjas 14 kt iš Vakarų/Šiaurės Vakarų
Temperatūra 29°C
Drėgmė 23%
Slėgis 1003 hPa
Matomumas 10 km arba daugiau
nėra debesų žemiau 1500 m ir nėra kamuolinių lietaus debesų

METAR: OEDF 242300Z 30014KT CAVOK 29/06 Q1003 NOSIG

Laikas: 02:54 (23:54 UTC)

Prognozė

Ataskaita buvo paskelbta 8 valandos ir 54 minutes, ne 15:00 UTC
Prognozė galioja nuo 24 metu 18 UTC su 25 metu 24 UTC
Vėjas 12 kt iš Šiaurės/Šiaurės Vakarų
Matomumas: 8000 m
Tapsmas
nuo 25 metu 03 UTC su 25 metu 05 UTC
Vėjas 15 kt iš Šiaurės/Šiaurės Vakarų su gūsio iki 25 kt
Matomumas: 4000 m
Dulkes pustymas
Tikimybė 30% :
Laikinai
nuo 25 metu 08 UTC su 25 metu 18 UTC
Matomumas: 1000 m
Tapsmas
nuo 25 metu 16 UTC su 25 metu 18 UTC
Vėjas 12 kt iš Šiaurės/Šiaurės Vakarų

TAF: OEDF 241500Z 2418/2524 33012KT 8000 NSC BECMG 2503/2505 34015G25KT 4000 BLDU PROB30 TEMPO 2508/2518 1000 BECMG 2516/2518 33012KT

Orai ataskaitas ir orų prognozės (METAR, TAF).

turimą stotys yra geltonos ir raudonos taškus žemėlapyje.

Perkelti pele per norėdami pamatyti stoties vardą.

Tada spustelėkite, norėdami matyti oro stebėjimo ir prognozės.

Norėdami pakeisti žemėlapį: spustelėkite ant žalios mygtukų su juodo kryžiaus žemyn,; žalią mygtuką su brūkšneliu, jei norite nutolinti; arba žalių rodyklių gretimoms žemėlapius.


METAR-TAF: